createdAt,value
2022-09-12T00:01:31.547Z,99872.53
2022-09-12T00:03:34.464Z,99864.34
2022-09-12T00:05:44.791Z,99870.59
2022-09-12T00:07:47.396Z,99869.81
2022-09-12T00:09:49.959Z,99873.34
2022-09-12T00:11:52.534Z,99871.44
2022-09-12T00:13:59.667Z,99872.25
2022-09-12T00:16:02.502Z,99870.06
2022-09-12T00:18:05.456Z,99871.16
2022-09-12T00:20:09.562Z,99872.25
2022-09-12T00:22:12.066Z,99868.72
2022-09-12T00:24:14.628Z,99868.19
2022-09-12T00:26:18.807Z,99872.81
2022-09-12T00:28:21.344Z,99876.66
2022-09-12T00:30:24.164Z,99878.03
2022-09-12T00:32:26.802Z,99868.22
2022-09-12T00:34:29.360Z,99875.34
2022-09-12T00:36:31.931Z,99871.28
2022-09-12T00:38:38.530Z,99871.53
2022-09-12T00:40:42.834Z,99876.47
2022-09-12T00:42:45.357Z,99873.19
2022-09-12T00:44:51.254Z,99876.75
2022-09-12T00:46:59.258Z,99874.53
2022-09-12T00:49:14.247Z,99873.50
2022-09-12T00:51:18.652Z,99881.69
2022-09-12T00:53:21.641Z,99882.50
2022-09-12T00:55:54.816Z,99882.22
2022-09-12T00:58:01.988Z,99871.31
2022-09-12T01:00:14.944Z,99873.78
2022-09-12T01:02:18.073Z,99871.03
2022-09-12T01:04:23.478Z,99869.69
2022-09-12T01:06:29.667Z,99865.63
2022-09-12T01:08:34.512Z,99872.97
2022-09-12T01:10:40.508Z,99871.34
2022-09-12T01:12:44.405Z,99872.97
2022-09-12T01:14:46.977Z,99873.53
2022-09-12T01:16:51.003Z,99882.81
2022-09-12T01:19:27.321Z,99883.88
2022-09-12T01:21:45.130Z,99878.19
2022-09-12T01:24:12.483Z,99879.28
2022-09-12T01:26:20.962Z,99879.00
2022-09-12T01:28:44.229Z,99886.38
2022-09-12T01:30:46.804Z,99885.25
2022-09-12T01:33:07.870Z,99886.91
2022-09-12T01:35:41.924Z,99884.72
2022-09-12T01:37:58.999Z,99881.19
2022-09-12T01:40:30.038Z,99882.34
2022-09-12T01:42:41.159Z,99894.03
2022-09-12T01:45:03.540Z,99883.72
2022-09-12T01:47:19.654Z,99889.97
2022-09-12T01:49:37.590Z,99890.25
2022-09-12T01:51:45.686Z,99868.50
2022-09-12T01:53:56.081Z,99888.31
2022-09-12T01:56:22.882Z,99895.41
2022-09-12T01:58:30.537Z,99883.44
2022-09-12T02:00:38.177Z,99893.78
2022-09-12T02:02:48.795Z,99891.88
2022-09-12T02:05:09.111Z,99895.69
2022-09-12T02:07:18.497Z,99886.97
2022-09-12T02:09:26.245Z,99891.34
2022-09-12T02:11:33.336Z,99894.88
2022-09-12T02:14:02.018Z,99892.16
2022-09-12T02:16:26.107Z,99890.00
2022-09-12T02:18:32.412Z,99888.88
2022-09-12T02:20:47.842Z,99894.03
2022-09-12T02:22:56.009Z,99893.75
2022-09-12T02:25:01.337Z,99899.72
2022-09-12T02:27:39.680Z,99891.28
2022-09-12T02:29:44.828Z,99898.09
2022-09-12T02:31:53.515Z,99895.09
2022-09-12T02:34:23.132Z,99895.06
2022-09-12T02:36:25.629Z,99896.94
2022-09-12T02:38:38.517Z,99896.94
2022-09-12T02:40:41.737Z,99892.03
2022-09-12T02:42:44.378Z,99889.78
2022-09-12T02:44:47.273Z,99894.09
2022-09-12T02:46:55.988Z,99893.47
2022-09-12T02:48:58.925Z,99896.72
2022-09-12T02:51:02.656Z,99903.22
2022-09-12T02:53:08.436Z,99899.34
2022-09-12T02:55:11.849Z,99896.59
2022-09-12T02:57:22.641Z,99896.53
2022-09-12T02:59:26.603Z,99896.22
2022-09-12T03:01:50.612Z,99888.25
2022-09-12T03:03:55.783Z,99897.22
2022-09-12T03:06:01.307Z,99895.56
2022-09-12T03:08:09.723Z,99901.50
2022-09-12T03:10:35.128Z,99896.25
2022-09-12T03:12:46.220Z,99899.47
2022-09-12T03:14:54.436Z,99879.00
2022-09-12T03:17:25.961Z,99896.88
2022-09-12T03:19:57.815Z,99902.81
2022-09-12T03:22:21.530Z,99903.81
2022-09-12T03:24:38.714Z,99908.41
2022-09-12T03:26:46.889Z,99906.13
2022-09-12T03:28:50.476Z,99905.56
2022-09-12T03:30:54.862Z,99896.72
2022-09-12T03:32:57.527Z,99902.94
2022-09-12T03:35:00.069Z,99899.09
2022-09-12T03:37:02.934Z,99902.31
2022-09-12T03:39:05.697Z,99900.91
2022-09-12T03:41:08.365Z,99900.91
2022-09-12T03:43:11.369Z,99906.38
2022-09-12T03:45:13.942Z,99904.69
2022-09-12T03:47:16.722Z,99897.81
2022-09-12T03:49:19.633Z,99905.41
2022-09-12T03:51:22.374Z,99903.13
2022-09-12T03:53:25.043Z,99904.72
2022-09-12T03:55:27.973Z,99899.97
2022-09-12T03:57:30.566Z,99900.19
2022-09-12T03:59:33.237Z,99912.69
2022-09-12T04:01:35.788Z,99907.28
2022-09-12T04:03:40.141Z,99911.59
2022-09-12T04:05:48.044Z,99914.63
2022-09-12T04:07:50.609Z,99918.69
2022-09-12T04:09:53.612Z,99914.25
2022-09-12T04:11:56.170Z,99915.28
2022-09-12T04:13:58.865Z,99922.59
2022-09-12T04:16:02.099Z,99919.22
2022-09-12T04:18:06.054Z,99908.56
2022-09-12T04:20:09.507Z,99925.56
2022-09-12T04:22:12.121Z,99923.53
2022-09-12T04:24:14.663Z,99923.97
2022-09-12T04:26:18.847Z,99918.41
2022-09-12T04:28:21.550Z,99928.97
2022-09-12T04:30:24.261Z,99925.34
2022-09-12T04:32:26.836Z,99931.75
2022-09-12T04:34:31.763Z,99933.56
2022-09-12T04:36:34.622Z,99943.88
2022-09-12T04:38:37.876Z,99933.94
2022-09-12T04:40:40.720Z,99941.25
2022-09-12T04:42:43.482Z,99949.69
2022-09-12T04:44:46.166Z,99942.25
2022-09-12T04:46:49.052Z,99941.88
2022-09-12T04:48:56.437Z,99950.63
2022-09-12T04:51:17.844Z,99953.78
2022-09-12T04:53:20.448Z,99954.81
2022-09-12T04:55:25.484Z,99955.91
2022-09-12T04:57:28.131Z,99946.75
2022-09-12T04:59:30.605Z,99959.28
2022-09-12T05:01:33.508Z,99957.16
2022-09-12T05:03:41.795Z,99961.13
2022-09-12T05:05:47.293Z,99956.97
2022-09-12T05:07:49.879Z,99953.50
2022-09-12T05:09:52.540Z,99954.72
2022-09-12T05:12:10.450Z,99950.75
2022-09-12T05:14:13.148Z,99968.44
2022-09-12T05:16:17.383Z,99959.19
2022-09-12T05:18:19.893Z,99958.16
2022-09-12T05:20:22.495Z,99948.97
2022-09-12T05:22:25.342Z,99950.56
2022-09-12T05:24:28.147Z,99948.88
2022-09-12T05:26:30.738Z,99954.47
2022-09-12T05:28:36.292Z,99951.00
2022-09-12T05:30:38.890Z,99947.78
2022-09-12T05:32:41.406Z,99951.41
2022-09-12T05:34:43.909Z,99941.09
2022-09-12T05:36:46.487Z,99944.38
2022-09-12T05:38:49.019Z,99946.19
2022-09-12T05:40:52.503Z,99943.81
2022-09-12T05:42:55.047Z,99940.13
2022-09-12T05:44:57.648Z,99946.63
2022-09-12T05:47:00.215Z,99951.16
2022-09-12T05:49:07.806Z,99951.03
2022-09-12T05:51:13.872Z,99941.69
2022-09-12T05:53:16.364Z,99946.75
2022-09-12T05:55:19.679Z,99946.47
2022-09-12T05:57:22.315Z,99946.13
2022-09-12T05:59:24.915Z,99947.94
2022-09-12T06:01:29.218Z,99946.22
2022-09-12T06:03:31.839Z,99950.81
2022-09-12T06:05:34.935Z,99942.44
2022-09-12T06:07:37.464Z,99952.34
2022-09-12T06:09:39.983Z,99953.63
2022-09-12T06:11:43.222Z,99954.75
2022-09-12T06:13:46.170Z,99957.34
2022-09-12T06:15:48.771Z,99956.19
2022-09-12T06:17:51.611Z,99957.63
2022-09-12T06:19:54.336Z,99960.69
2022-09-12T06:21:57.218Z,99952.91
2022-09-12T06:23:59.703Z,99954.66
2022-09-12T06:26:04.423Z,99955.69
2022-09-12T06:28:06.920Z,99960.81
2022-09-12T06:30:09.941Z,99958.00
2022-09-12T06:32:12.537Z,99958.56
2022-09-12T06:34:16.181Z,99955.56
2022-09-12T06:36:24.564Z,99951.59
2022-09-12T06:38:27.075Z,99956.16
2022-09-12T06:40:29.988Z,99954.31
2022-09-12T06:42:33.264Z,99955.13
2022-09-12T06:44:36.182Z,99957.97
2022-09-12T06:46:38.780Z,99948.38
2022-09-12T06:48:42.487Z,99946.56
2022-09-12T06:50:56.610Z,99940.03
2022-09-12T06:52:59.094Z,99952.63
2022-09-12T06:55:01.646Z,99951.34
2022-09-12T06:57:04.450Z,99946.47
2022-09-12T06:59:06.967Z,99942.91
2022-09-12T07:01:18.415Z,99941.88
2022-09-12T07:03:20.957Z,99945.09
2022-09-12T07:05:24.082Z,99948.09
2022-09-12T07:07:26.837Z,99939.03
2022-09-12T07:09:30.951Z,99944.59
2022-09-12T07:11:36.694Z,99943.94
2022-09-12T07:13:40.474Z,99945.00
2022-09-12T07:15:43.002Z,99945.78
2022-09-12T07:17:45.755Z,99950.53
2022-09-12T07:19:48.266Z,99953.22
2022-09-12T07:21:54.204Z,99949.66
2022-09-12T07:23:59.323Z,99951.94
2022-09-12T07:26:02.849Z,99949.88
2022-09-12T07:28:05.330Z,99950.34
2022-09-12T07:30:08.203Z,99956.13
2022-09-12T07:32:12.300Z,99952.75
2022-09-12T07:34:14.929Z,99951.19
2022-09-12T07:36:20.345Z,99942.28
2022-09-12T07:38:23.611Z,99951.84
2022-09-12T07:40:26.081Z,99944.50
2022-09-12T07:42:47.215Z,99945.66
2022-09-12T07:44:54.051Z,99943.81
2022-09-12T07:46:56.637Z,99932.38
2022-09-12T07:49:01.154Z,99941.00
2022-09-12T07:51:09.550Z,99942.31
2022-09-12T07:53:12.270Z,99938.59
2022-09-12T07:55:15.002Z,99934.91
2022-09-12T07:57:17.641Z,99937.56
2022-09-12T07:59:35.640Z,99932.25
2022-09-12T08:01:43.310Z,99944.25
2022-09-12T08:03:48.812Z,99942.19
2022-09-12T08:05:51.329Z,99944.25
2022-09-12T08:07:57.638Z,99937.53
2022-09-12T08:10:00.661Z,99944.81
2022-09-12T08:12:03.411Z,99943.31
2022-09-12T08:14:06.102Z,99945.75
2022-09-12T08:16:14.598Z,99938.69
2022-09-12T08:18:17.142Z,99943.97
2022-09-12T08:20:19.820Z,99939.84
2022-09-12T08:22:22.710Z,99950.72
2022-09-12T08:24:25.363Z,99947.63
2022-09-12T08:26:28.484Z,99941.69
2022-09-12T08:28:32.489Z,99944.13
2022-09-12T08:30:35.129Z,99945.69
2022-09-12T08:32:37.671Z,99943.03
2022-09-12T08:34:40.207Z,99946.34
2022-09-12T08:36:43.203Z,99942.50
2022-09-12T08:38:47.636Z,99937.81
2022-09-12T08:40:57.983Z,99947.81
2022-09-12T08:43:14.641Z,99945.41
2022-09-12T08:45:24.485Z,99942.16
2022-09-12T08:47:32.122Z,99937.38
2022-09-12T08:49:44.661Z,99938.06
2022-09-12T08:51:48.114Z,99931.88
2022-09-12T08:53:54.561Z,99937.66
2022-09-12T08:56:00.083Z,99938.28
2022-09-12T08:58:18.467Z,99933.75
2022-09-12T09:00:21.814Z,99933.22
2022-09-12T09:02:58.428Z,99929.78
2022-09-12T09:05:31.840Z,99929.97
2022-09-12T09:08:17.658Z,99932.63
2022-09-12T09:11:12.429Z,99934.28
2022-09-12T09:14:01.890Z,99931.91
2022-09-12T09:16:21.786Z,99935.38
2022-09-12T09:18:30.599Z,99931.09
2022-09-12T09:20:53.230Z,99928.50
2022-09-12T09:23:15.511Z,99926.47
2022-09-12T09:25:25.881Z,99923.81
2022-09-12T09:27:49.107Z,99926.00
2022-09-12T09:29:54.972Z,99928.22
2022-09-12T09:32:01.409Z,99922.28
2022-09-12T09:34:13.872Z,99934.16
2022-09-12T09:36:32.893Z,99914.91
2022-09-12T09:38:35.473Z,99916.78
2022-09-12T09:40:45.058Z,99928.28
2022-09-12T09:43:20.464Z,99915.56
2022-09-12T09:45:25.842Z,99911.84
2022-09-12T09:47:28.781Z,99911.38
2022-09-12T09:49:35.045Z,99912.00
2022-09-12T09:51:40.572Z,99911.84
2022-09-12T09:53:56.671Z,99912.50
2022-09-12T09:56:02.884Z,99913.09
2022-09-12T09:58:05.435Z,99910.41
2022-09-12T10:00:30.752Z,99907.44
2022-09-12T10:02:33.464Z,99904.66
2022-09-12T10:04:41.576Z,99912.16
2022-09-12T10:06:44.497Z,99905.47
2022-09-12T10:08:48.717Z,99913.38
2022-09-12T10:11:03.351Z,99906.19
2022-09-12T10:13:43.635Z,99901.13
2022-09-12T10:16:05.561Z,99914.19
2022-09-12T10:18:08.202Z,99905.88
2022-09-12T10:20:32.476Z,99913.56
2022-09-12T10:22:34.976Z,99910.03
2022-09-12T10:24:42.289Z,99912.41
2022-09-12T10:26:47.761Z,99912.66
2022-09-12T10:28:54.188Z,99904.22
2022-09-12T10:30:57.118Z,99905.47
2022-09-12T10:33:13.087Z,99901.19
2022-09-12T10:35:24.320Z,99908.69
2022-09-12T10:37:35.320Z,99914.91
2022-09-12T10:39:39.094Z,99907.84
2022-09-12T10:41:41.911Z,99906.16
2022-09-12T10:43:45.438Z,99908.47
2022-09-12T10:45:48.008Z,99903.59
2022-09-12T10:47:52.033Z,99905.19
2022-09-12T10:50:22.311Z,99907.31
2022-09-12T10:52:25.985Z,99910.81
2022-09-12T10:54:28.826Z,99910.59
2022-09-12T10:56:36.190Z,99903.25
2022-09-12T10:59:00.400Z,99903.13
2022-09-12T11:01:45.407Z,99897.84
2022-09-12T11:03:50.722Z,99890.13
2022-09-12T11:06:00.726Z,99896.38
2022-09-12T11:08:09.272Z,99902.66
2022-09-12T11:10:36.781Z,99894.91
2022-09-12T11:13:03.467Z,99904.84
2022-09-12T11:15:33.801Z,99900.59
2022-09-12T11:17:36.319Z,99899.25
2022-09-12T11:19:57.438Z,99895.47
2022-09-12T11:22:28.717Z,99893.84
2022-09-12T11:24:48.934Z,99882.94
2022-09-12T11:27:14.943Z,99881.06
2022-09-12T11:29:38.390Z,99893.47
2022-09-12T11:31:58.595Z,99890.72
2022-09-12T11:34:09.234Z,99876.72
2022-09-12T11:36:53.261Z,99885.59
2022-09-12T11:39:21.740Z,99885.94
2022-09-12T11:41:31.584Z,99885.06
2022-09-12T11:43:43.193Z,99885.56
2022-09-12T11:45:47.953Z,99873.69
2022-09-12T11:47:55.671Z,99870.03
2022-09-12T11:50:02.383Z,99877.75
2022-09-12T11:52:14.585Z,99875.84
2022-09-12T11:54:32.744Z,99881.22
2022-09-12T11:56:39.152Z,99871.72
2022-09-12T11:58:44.788Z,99876.97
2022-09-12T12:00:54.339Z,99869.16
2022-09-12T12:03:10.285Z,99867.53
2022-09-12T12:05:24.956Z,99874.84
2022-09-12T12:07:35.639Z,99866.69
2022-09-12T12:09:52.861Z,99869.25
2022-09-12T12:11:58.568Z,99870.50
2022-09-12T12:14:02.588Z,99864.38
2022-09-12T12:16:14.625Z,99865.94
2022-09-12T12:18:28.044Z,99868.72
2022-09-12T12:20:30.916Z,99866.25
2022-09-12T12:22:33.889Z,99858.88
2022-09-12T12:25:02.894Z,99857.75
2022-09-12T12:27:25.819Z,99856.44
2022-09-12T12:29:43.521Z,99849.84
2022-09-12T12:32:04.466Z,99853.25
2022-09-12T12:34:22.850Z,99844.97
2022-09-12T12:36:37.462Z,99848.25
2022-09-12T12:38:41.261Z,99846.22
2022-09-12T12:40:43.819Z,99852.88
2022-09-12T12:42:46.227Z,99850.00
2022-09-12T12:44:51.591Z,99852.97
2022-09-12T12:47:16.213Z,99841.44
2022-09-12T12:49:28.385Z,99846.88
2022-09-12T12:51:44.388Z,99844.91
2022-09-12T12:53:47.592Z,99853.47
2022-09-12T12:55:52.811Z,99847.41
2022-09-12T12:58:07.052Z,99844.91
2022-09-12T13:00:27.954Z,99856.59
2022-09-12T13:02:37.530Z,99846.88
2022-09-12T13:04:45.673Z,99852.22
2022-09-12T13:06:57.446Z,99847.91
2022-09-12T13:09:08.041Z,99847.28
2022-09-12T13:11:28.610Z,99851.31
2022-09-12T13:13:48.315Z,99846.50
2022-09-12T13:15:52.525Z,99844.56
2022-09-12T13:18:01.924Z,99840.28
2022-09-12T13:20:29.625Z,99837.19
2022-09-12T13:22:44.968Z,99844.81
2022-09-12T13:24:49.381Z,99844.63
2022-09-12T13:26:52.132Z,99845.84
2022-09-12T13:29:16.656Z,99840.72
2022-09-12T13:31:30.311Z,99845.38
2022-09-12T13:33:43.207Z,99841.84
2022-09-12T13:36:05.557Z,99835.94
2022-09-12T13:38:26.429Z,99843.56
2022-09-12T13:40:47.165Z,99832.78
2022-09-12T13:42:53.767Z,99833.53
2022-09-12T13:45:05.936Z,99838.91
2022-09-12T13:47:15.325Z,99838.66
2022-09-12T13:49:23.214Z,99843.19
2022-09-12T13:51:32.587Z,99842.53
2022-09-12T13:53:46.954Z,99832.63
2022-09-12T13:55:56.606Z,99841.44
2022-09-12T13:58:05.653Z,99838.09
2022-09-12T14:00:19.834Z,99833.00
2022-09-12T14:02:25.168Z,99843.13
2022-09-12T14:04:46.502Z,99829.78
2022-09-12T14:06:51.992Z,99833.13
2022-09-12T14:09:01.574Z,99832.50
2022-09-12T14:11:09.935Z,99835.22
2022-09-12T14:13:25.322Z,99835.00
2022-09-12T14:15:31.693Z,99839.13
2022-09-12T14:17:36.534Z,99840.91
2022-09-12T14:19:40.014Z,99834.59
2022-09-12T14:21:42.623Z,99828.41
2022-09-12T14:23:48.255Z,99832.06
2022-09-12T14:25:52.280Z,99835.69
2022-09-12T14:27:57.137Z,99829.56
2022-09-12T14:30:22.952Z,99833.88
2022-09-12T14:32:25.895Z,99828.69
2022-09-12T14:34:29.318Z,99836.44
2022-09-12T14:36:36.909Z,99832.16
2022-09-12T14:38:50.242Z,99846.81
2022-09-12T14:41:01.192Z,99834.25
2022-09-12T14:43:03.889Z,99842.38
2022-09-12T14:45:17.225Z,99841.69
2022-09-12T14:47:25.903Z,99845.78
2022-09-12T14:49:36.489Z,99846.50
2022-09-12T14:51:47.146Z,99841.63
2022-09-12T14:53:52.006Z,99856.88
2022-09-12T14:56:11.869Z,99848.22
2022-09-12T14:58:17.355Z,99854.22
2022-09-12T15:00:24.986Z,99853.72
2022-09-12T15:02:27.824Z,99852.56
2022-09-12T15:04:48.335Z,99857.28
2022-09-12T15:06:51.000Z,99857.09
2022-09-12T15:08:55.101Z,99858.69
2022-09-12T15:10:58.845Z,99858.59
2022-09-12T15:13:10.032Z,99859.47
2022-09-12T15:15:18.958Z,99858.63
2022-09-12T15:17:21.576Z,99862.59
2022-09-12T15:19:24.102Z,99853.56
2022-09-12T15:21:26.846Z,99866.63
2022-09-12T15:23:36.867Z,99861.00
2022-09-12T15:25:39.404Z,99859.13
2022-09-12T15:27:42.595Z,99859.78
2022-09-12T15:29:45.248Z,99864.16
2022-09-12T15:31:51.364Z,99861.72
2022-09-12T15:33:56.369Z,99866.16
2022-09-12T15:36:01.085Z,99866.53
2022-09-12T15:38:10.793Z,99861.34
2022-09-12T15:40:15.882Z,99863.16
2022-09-12T15:42:29.700Z,99868.97
2022-09-12T15:44:33.603Z,99857.31
2022-09-12T15:46:37.995Z,99858.63
2022-09-12T15:48:41.667Z,99856.88
2022-09-12T15:50:46.034Z,99868.25
2022-09-12T15:52:50.028Z,99870.88
2022-09-12T15:54:53.708Z,99867.94
2022-09-12T15:56:57.143Z,99870.41
2022-09-12T15:59:00.630Z,99871.06
2022-09-12T16:01:05.519Z,99875.13
2022-09-12T16:03:28.047Z,99873.22
2022-09-12T16:05:31.957Z,99870.94
2022-09-12T16:07:35.757Z,99880.34
2022-09-12T16:09:39.562Z,99875.78
2022-09-12T16:11:45.475Z,99868.84
2022-09-12T16:13:49.399Z,99872.59
2022-09-12T16:15:57.743Z,99874.03
2022-09-12T16:18:00.563Z,99873.88
2022-09-12T16:20:03.618Z,99878.09
2022-09-12T16:22:06.403Z,99878.25
2022-09-12T16:24:08.875Z,99885.22
2022-09-12T16:26:11.455Z,99883.94
2022-09-12T16:28:14.140Z,99886.50
2022-09-12T16:30:16.720Z,99877.63
2022-09-12T16:32:19.183Z,99883.94
2022-09-12T16:34:21.876Z,99894.94
2022-09-12T16:36:24.717Z,99884.59
2022-09-12T16:38:27.430Z,99888.31
2022-09-12T16:40:31.726Z,99883.28
2022-09-12T16:42:34.387Z,99890.25
2022-09-12T16:44:36.957Z,99889.25
2022-09-12T16:46:39.533Z,99883.25
2022-09-12T16:48:51.808Z,99890.56
2022-09-12T16:51:01.066Z,99887.59
2022-09-12T16:53:03.683Z,99887.25
2022-09-12T16:55:06.932Z,99880.25
2022-09-12T16:57:09.531Z,99894.19
2022-09-12T16:59:16.317Z,99895.63
2022-09-12T17:01:21.827Z,99885.94
2022-09-12T17:03:24.354Z,99883.63
2022-09-12T17:05:27.961Z,99891.91
2022-09-12T17:07:30.643Z,99890.41
2022-09-12T17:09:33.282Z,99889.41
2022-09-12T17:11:38.962Z,99893.94
2022-09-12T17:14:03.319Z,99888.41
2022-09-12T17:16:07.045Z,99888.22
2022-09-12T17:18:09.491Z,99892.75
2022-09-12T17:20:12.005Z,99882.16
2022-09-12T17:22:14.548Z,99896.91
2022-09-12T17:24:18.098Z,99893.66
2022-09-12T17:26:20.957Z,99884.81
2022-09-12T17:28:23.770Z,99901.03
2022-09-12T17:30:26.380Z,99902.28
2022-09-12T17:32:28.888Z,99903.72
2022-09-12T17:34:31.550Z,99902.56
2022-09-12T17:36:34.388Z,99902.56
2022-09-12T17:38:39.862Z,99904.50
2022-09-12T17:40:59.062Z,99896.06
2022-09-12T17:43:02.541Z,99900.44
2022-09-12T17:45:05.651Z,99907.06
2022-09-12T17:47:08.167Z,99902.19
2022-09-12T17:49:18.722Z,99900.75
2022-09-12T17:51:25.455Z,99909.28
2022-09-12T17:53:27.968Z,99908.31
2022-09-12T17:55:34.223Z,99900.88
2022-09-12T17:57:37.239Z,99898.78
2022-09-12T17:59:40.228Z,99890.63
2022-09-12T18:02:01.400Z,99901.00
2022-09-12T18:04:03.978Z,99905.22
2022-09-12T18:06:06.756Z,99897.25
2022-09-12T18:08:09.307Z,99895.66
2022-09-12T18:10:12.191Z,99893.50
2022-09-12T18:12:15.793Z,99897.69
2022-09-12T18:14:19.011Z,99895.28
2022-09-12T18:16:21.561Z,99897.53
2022-09-12T18:18:24.117Z,99897.53
2022-09-12T18:20:26.777Z,99892.03
2022-09-12T18:22:29.429Z,99888.28
2022-09-12T18:24:32.735Z,99893.94
2022-09-12T18:26:35.452Z,99903.31
2022-09-12T18:28:40.632Z,99893.78
2022-09-12T18:30:43.108Z,99891.03
2022-09-12T18:32:46.140Z,99889.88
2022-09-12T18:34:48.588Z,99894.91
2022-09-12T18:36:54.413Z,99895.38
2022-09-12T18:38:58.768Z,99888.28
2022-09-12T18:41:03.437Z,99888.91
2022-09-12T18:43:06.240Z,99889.50
2022-09-12T18:45:09.578Z,99886.59
2022-09-12T18:47:12.046Z,99892.22
2022-09-12T18:49:14.535Z,99886.00
2022-09-12T18:51:25.951Z,99888.56
2022-09-12T18:53:28.420Z,99889.16
2022-09-12T18:55:32.256Z,99881.66
2022-09-12T18:57:35.297Z,99889.91
2022-09-12T18:59:37.887Z,99885.34
2022-09-12T19:01:40.563Z,99887.06
2022-09-12T19:03:43.889Z,99897.88
2022-09-12T19:05:46.477Z,99894.91
2022-09-12T19:07:49.133Z,99889.25
2022-09-12T19:09:51.813Z,99899.72
2022-09-12T19:11:54.323Z,99892.59
2022-09-12T19:13:57.233Z,99884.97
2022-09-12T19:16:01.225Z,99895.97
2022-09-12T19:18:03.861Z,99897.38
2022-09-12T19:20:06.784Z,99896.06
2022-09-12T19:22:09.444Z,99898.31
2022-09-12T19:24:13.730Z,99887.97
2022-09-12T19:26:18.227Z,99885.50
2022-09-12T19:28:20.675Z,99885.81
2022-09-12T19:30:23.518Z,99880.13
2022-09-12T19:32:26.022Z,99892.72
2022-09-12T19:34:28.490Z,99885.41
2022-09-12T19:36:44.967Z,99892.03
2022-09-12T19:38:48.836Z,99886.31
2022-09-12T19:40:58.713Z,99889.41
2022-09-12T19:43:01.138Z,99877.19
2022-09-12T19:45:04.082Z,99889.19
2022-09-12T19:47:06.648Z,99885.13
2022-09-12T19:49:11.064Z,99893.97
2022-09-12T19:51:15.661Z,99884.09
2022-09-12T19:53:18.727Z,99895.41
2022-09-12T19:55:22.352Z,99887.75
2022-09-12T19:57:24.835Z,99873.97
2022-09-12T19:59:27.370Z,99889.50
2022-09-12T20:01:29.955Z,99884.31
2022-09-12T20:03:32.601Z,99887.06
2022-09-12T20:05:38.496Z,99885.53
2022-09-12T20:07:44.559Z,99894.59
2022-09-12T20:09:47.324Z,99889.69
2022-09-12T20:11:50.139Z,99888.38
2022-09-12T20:13:52.723Z,99876.91
2022-09-12T20:15:55.231Z,99880.25
2022-09-12T20:17:58.386Z,99885.22
2022-09-12T20:20:00.881Z,99881.97
2022-09-12T20:22:03.544Z,99879.84
2022-09-12T20:24:15.917Z,99880.47
2022-09-12T20:26:20.478Z,99886.25
2022-09-12T20:28:23.185Z,99882.47
2022-09-12T20:30:25.820Z,99886.00
2022-09-12T20:32:29.252Z,99883.59
2022-09-12T20:34:31.786Z,99882.28
2022-09-12T20:36:34.678Z,99882.56
2022-09-12T20:38:37.209Z,99877.09
2022-09-12T20:40:39.907Z,99876.47
2022-09-12T20:42:42.530Z,99877.09
2022-09-12T20:44:44.996Z,99875.38
2022-09-12T20:46:47.610Z,99885.09
2022-09-12T20:48:51.523Z,99892.44
2022-09-12T20:50:54.020Z,99886.34
2022-09-12T20:52:56.448Z,99892.03
2022-09-12T20:54:58.981Z,99887.88
2022-09-12T20:57:01.503Z,99890.81
2022-09-12T20:59:04.917Z,99903.91
2022-09-12T21:01:09.079Z,99889.91
2022-09-12T21:03:11.870Z,99890.72
2022-09-12T21:05:14.542Z,99890.72
2022-09-12T21:07:17.373Z,99893.75
2022-09-12T21:09:19.947Z,99895.41
2022-09-12T21:11:22.370Z,99895.41
2022-09-12T21:13:24.996Z,99894.59
2022-09-12T21:15:27.512Z,99895.41
2022-09-12T21:17:29.971Z,99889.28
2022-09-12T21:19:32.453Z,99888.69
2022-09-12T21:21:35.117Z,99895.50
2022-09-12T21:23:37.994Z,99889.69
2022-09-12T21:25:40.548Z,99888.59
2022-09-12T21:27:43.121Z,99884.72
2022-09-12T21:29:45.581Z,99882.78
2022-09-12T21:31:48.148Z,99879.84
2022-09-12T21:33:51.502Z,99888.59
2022-09-12T21:35:54.394Z,99894.28
2022-09-12T21:37:57.450Z,99885.75
2022-09-12T21:40:00.032Z,99886.25
2022-09-12T21:42:02.575Z,99888.16
2022-09-12T21:44:05.332Z,99880.44
2022-09-12T21:46:09.032Z,99888.38
2022-09-12T21:48:12.394Z,99880.16
2022-09-12T21:50:15.343Z,99880.66
2022-09-12T21:52:17.793Z,99881.75
2022-09-12T21:54:20.248Z,99874.66
2022-09-12T21:56:23.465Z,99880.16
2022-09-12T21:58:25.950Z,99879.63
2022-09-12T22:00:28.598Z,99882.50
2022-09-12T22:02:31.107Z,99890.81
2022-09-12T22:04:33.550Z,99885.44
2022-09-12T22:06:36.690Z,99889.09
2022-09-12T22:08:39.384Z,99882.91
2022-09-12T22:10:42.063Z,99885.22
2022-09-12T22:12:46.471Z,99883.41
2022-09-12T22:14:49.435Z,99873.03
2022-09-12T22:16:52.049Z,99884.22
2022-09-12T22:18:54.599Z,99882.66
2022-09-12T22:21:05.771Z,99881.44
2022-09-12T22:23:28.363Z,99881.03
2022-09-12T22:25:31.054Z,99887.41
2022-09-12T22:27:33.591Z,99885.56
2022-09-12T22:29:37.322Z,99885.34
2022-09-12T22:31:40.480Z,99889.78
2022-09-12T22:33:43.251Z,99880.84
2022-09-12T22:35:45.742Z,99894.84
2022-09-12T22:37:48.232Z,99889.97
2022-09-12T22:39:51.032Z,99885.19
2022-09-12T22:41:53.580Z,99874.09
2022-09-12T22:43:57.297Z,99889.63
2022-09-12T22:46:00.574Z,99883.38
2022-09-12T22:48:06.217Z,99888.03
2022-09-12T22:50:11.552Z,99894.41
2022-09-12T22:52:16.161Z,99884.88
2022-09-12T22:54:19.022Z,99888.22
2022-09-12T22:56:21.835Z,99886.88
2022-09-12T22:58:24.420Z,99889.63
2022-09-12T23:00:29.920Z,99889.38
2022-09-12T23:02:32.418Z,99892.44
2022-09-12T23:04:34.995Z,99889.38
2022-09-12T23:06:37.455Z,99884.22
2022-09-12T23:08:40.360Z,99883.91
2022-09-12T23:10:44.162Z,99883.72
2022-09-12T23:12:46.642Z,99884.00
2022-09-12T23:14:49.191Z,99881.88
2022-09-12T23:16:51.680Z,99888.94
2022-09-12T23:18:54.236Z,99886.53
2022-09-12T23:21:01.389Z,99880.53
2022-09-12T23:23:04.225Z,99889.03
2022-09-12T23:25:07.750Z,99881.41
2022-09-12T23:27:10.293Z,99884.97
2022-09-12T23:29:12.746Z,99882.50
2022-09-12T23:31:17.180Z,99883.63
2022-09-12T23:33:20.053Z,99880.59
2022-09-12T23:35:22.501Z,99885.50
2022-09-12T23:37:26.787Z,99887.09
2022-09-12T23:39:29.298Z,99892.28
2022-09-12T23:41:32.083Z,99894.44
2022-09-12T23:43:34.922Z,99892.72
2022-09-12T23:45:37.476Z,99892.13
2022-09-12T23:47:39.965Z,99892.66
2022-09-12T23:49:42.442Z,99903.00
2022-09-12T23:51:44.974Z,99894.22
2022-09-12T23:53:47.769Z,99897.16
2022-09-12T23:55:50.477Z,99893.84
2022-09-12T23:57:54.388Z,99901.19
2022-09-12T23:59:56.833Z,99901.38
